createdAt,value
2022-10-27T00:00:23.735Z,15.10
2022-10-27T00:02:51.614Z,15.10
2022-10-27T00:05:19.511Z,15.10
2022-10-27T00:07:49.193Z,15.10
2022-10-27T00:10:17.478Z,15.10
2022-10-27T00:12:45.987Z,15.10
2022-10-27T00:15:14.492Z,15.10
2022-10-27T00:17:42.528Z,15.10
2022-10-27T00:20:11.334Z,15.20
2022-10-27T00:22:39.183Z,15.20
2022-10-27T00:25:09.172Z,15.20
2022-10-27T00:27:37.009Z,15.20
2022-10-27T00:30:05.384Z,15.10
2022-10-27T00:32:33.232Z,15.10
2022-10-27T00:35:01.120Z,15.10
2022-10-27T00:37:29.448Z,15.10
2022-10-27T00:39:57.274Z,15.00
2022-10-27T00:42:26.460Z,15.00
2022-10-27T00:44:54.394Z,15.00
2022-10-27T00:47:25.113Z,15.00
2022-10-27T00:50:00.319Z,15.00
2022-10-27T00:52:32.576Z,15.00
2022-10-27T00:55:04.927Z,15.00
2022-10-27T00:57:35.675Z,14.90
2022-10-27T01:00:06.211Z,14.90
2022-10-27T01:02:36.015Z,14.90
2022-10-27T01:05:07.579Z,14.90
2022-10-27T01:07:36.695Z,14.90
2022-10-27T01:10:05.379Z,14.90
2022-10-27T01:12:34.992Z,14.90
2022-10-27T01:15:03.537Z,14.90
2022-10-27T01:17:42.642Z,14.90
2022-10-27T01:20:39.169Z,14.80
2022-10-27T01:23:11.951Z,14.80
2022-10-27T01:26:09.061Z,14.80
2022-10-27T01:29:02.464Z,14.80
2022-10-27T01:31:35.334Z,14.70
2022-10-27T01:34:10.569Z,14.70
2022-10-27T01:36:43.665Z,14.70
2022-10-27T01:39:17.643Z,14.70
2022-10-27T01:41:49.737Z,14.70
2022-10-27T01:44:23.277Z,14.70
2022-10-27T01:46:54.167Z,14.70
2022-10-27T01:49:22.057Z,14.70
2022-10-27T01:51:50.697Z,14.70
2022-10-27T01:54:21.536Z,14.70
2022-10-27T01:57:08.902Z,14.70
2022-10-27T01:59:55.912Z,14.70
2022-10-27T02:02:35.063Z,14.70
2022-10-27T02:05:08.037Z,14.70
2022-10-27T02:07:45.504Z,14.70
2022-10-27T02:10:19.123Z,14.70
2022-10-27T02:12:47.999Z,14.70
2022-10-27T02:15:24.968Z,14.60
2022-10-27T02:17:58.323Z,14.60
2022-10-27T02:20:30.456Z,14.60
2022-10-27T02:23:01.868Z,14.60
2022-10-27T02:25:35.266Z,14.60
2022-10-27T02:28:07.036Z,14.60
2022-10-27T02:30:36.093Z,14.60
2022-10-27T02:33:06.514Z,14.60
2022-10-27T02:35:34.854Z,14.60
2022-10-27T02:38:02.677Z,14.60
2022-10-27T02:40:30.612Z,14.50
2022-10-27T02:42:58.478Z,14.60
2022-10-27T02:45:26.289Z,14.60
2022-10-27T02:47:54.172Z,14.60
2022-10-27T02:50:23.448Z,14.60
2022-10-27T02:52:51.467Z,14.60
2022-10-27T02:55:19.519Z,14.60
2022-10-27T02:57:47.640Z,14.60
2022-10-27T03:00:17.031Z,14.60
2022-10-27T03:02:44.949Z,14.60
2022-10-27T03:05:12.794Z,14.60
2022-10-27T03:07:42.006Z,14.50
2022-10-27T03:10:10.530Z,14.50
2022-10-27T03:12:38.415Z,14.50
2022-10-27T03:15:07.316Z,14.50
2022-10-27T03:17:35.305Z,14.40
2022-10-27T03:20:03.112Z,14.40
2022-10-27T03:22:30.894Z,14.50
2022-10-27T03:25:00.149Z,14.50
2022-10-27T03:27:28.023Z,14.50
2022-10-27T03:29:55.856Z,14.50
2022-10-27T03:32:23.875Z,14.50
2022-10-27T03:34:51.787Z,14.50
2022-10-27T03:37:19.608Z,14.50
2022-10-27T03:39:47.420Z,14.40
2022-10-27T03:42:16.555Z,14.40
2022-10-27T03:44:44.399Z,14.40
2022-10-27T03:47:12.280Z,14.40
2022-10-27T03:49:40.174Z,14.40
2022-10-27T03:52:07.979Z,14.40
2022-10-27T03:54:35.853Z,14.40
2022-10-27T03:57:03.677Z,14.40
2022-10-27T03:59:32.862Z,14.30
2022-10-27T04:02:02.326Z,14.30
2022-10-27T04:04:32.761Z,14.30
2022-10-27T04:07:00.608Z,14.30
2022-10-27T04:09:28.624Z,14.30
2022-10-27T04:11:56.503Z,14.30
2022-10-27T04:14:24.408Z,14.30
2022-10-27T04:16:53.652Z,14.30
2022-10-27T04:19:21.703Z,14.30
2022-10-27T04:21:49.575Z,14.40
2022-10-27T04:24:17.395Z,14.40
2022-10-27T04:26:45.211Z,14.40
2022-10-27T04:29:13.061Z,14.30
2022-10-27T04:31:40.915Z,14.30
2022-10-27T04:34:10.115Z,14.30
2022-10-27T04:36:38.011Z,14.30
2022-10-27T04:39:05.918Z,14.30
2022-10-27T04:41:33.779Z,14.30
2022-10-27T04:44:01.664Z,14.30
2022-10-27T04:46:29.494Z,14.30
2022-10-27T04:48:57.436Z,14.20
2022-10-27T04:51:26.712Z,14.20
2022-10-27T04:53:54.503Z,14.20
2022-10-27T04:56:22.335Z,14.20
2022-10-27T04:58:50.171Z,14.20
2022-10-27T05:01:18.222Z,14.20
2022-10-27T05:03:48.300Z,14.20
2022-10-27T05:06:16.159Z,14.10
2022-10-27T05:08:45.996Z,14.10
2022-10-27T05:11:16.360Z,14.10
2022-10-27T05:13:44.693Z,14.10
2022-10-27T05:16:12.539Z,14.10
2022-10-27T05:18:40.418Z,14.10
2022-10-27T05:21:08.374Z,14.10
2022-10-27T05:23:36.279Z,14.10
2022-10-27T05:26:05.541Z,14.10
2022-10-27T05:28:33.393Z,14.10
2022-10-27T05:31:02.511Z,14.00
2022-10-27T05:33:30.409Z,14.10
2022-10-27T05:35:58.288Z,14.00
2022-10-27T05:38:26.137Z,14.10
2022-10-27T05:40:56.486Z,14.00
2022-10-27T05:43:26.193Z,14.00
2022-10-27T05:45:54.031Z,14.00
2022-10-27T05:48:21.832Z,14.00
2022-10-27T05:50:54.715Z,14.00
2022-10-27T05:53:22.742Z,14.00
2022-10-27T05:55:53.928Z,14.00
2022-10-27T05:58:22.367Z,14.00
2022-10-27T06:00:51.558Z,14.00
2022-10-27T06:03:21.863Z,14.00
2022-10-27T06:05:50.405Z,14.00
2022-10-27T06:08:18.919Z,14.00
2022-10-27T06:10:47.790Z,14.00
2022-10-27T06:13:15.971Z,14.00
2022-10-27T06:18:14.355Z,14.00
2022-10-27T06:20:43.048Z,14.10
2022-10-27T06:23:10.915Z,14.10
2022-10-27T06:25:38.776Z,14.10
2022-10-27T06:28:07.251Z,14.10
2022-10-27T06:30:35.167Z,14.10
2022-10-27T06:33:02.976Z,14.10
2022-10-27T06:35:32.187Z,14.10
2022-10-27T06:38:00.079Z,14.10
2022-10-27T06:40:27.943Z,14.00
2022-10-27T06:43:07.210Z,14.00
2022-10-27T06:45:43.776Z,14.00
2022-10-27T06:48:13.643Z,13.90
2022-10-27T06:50:47.297Z,13.90
2022-10-27T06:53:18.046Z,13.90
2022-10-27T06:55:45.941Z,13.90
2022-10-27T06:58:16.787Z,13.90
2022-10-27T07:03:34.409Z,13.90
2022-10-27T07:06:07.422Z,13.90
2022-10-27T07:08:35.448Z,13.90
2022-10-27T07:11:03.331Z,14.00
2022-10-27T07:13:31.167Z,14.00
2022-10-27T07:15:59.016Z,14.00
2022-10-27T07:18:38.655Z,14.00
2022-10-27T07:21:08.464Z,14.00
2022-10-27T07:23:36.413Z,14.00
2022-10-27T07:26:04.578Z,14.00
2022-10-27T07:28:32.469Z,14.10
2022-10-27T07:31:07.441Z,14.10
2022-10-27T07:33:36.076Z,14.10
2022-10-27T07:36:06.327Z,14.10
2022-10-27T07:41:29.795Z,14.20
2022-10-27T07:43:57.687Z,14.20
2022-10-27T07:46:27.304Z,14.10
2022-10-27T07:48:58.074Z,14.20
2022-10-27T07:51:29.064Z,14.20
2022-10-27T07:53:58.352Z,14.20
2022-10-27T07:56:33.311Z,14.30
2022-10-27T07:59:04.037Z,14.30
2022-10-27T08:01:32.283Z,14.30
2022-10-27T08:04:02.176Z,14.40
2022-10-27T08:06:30.396Z,14.40
2022-10-27T08:08:59.582Z,14.40
2022-10-27T08:11:38.424Z,14.50
2022-10-27T08:14:22.377Z,14.60
2022-10-27T08:16:50.459Z,14.60
2022-10-27T08:19:19.130Z,14.70
2022-10-27T08:21:48.121Z,14.70
2022-10-27T08:24:19.792Z,14.80
2022-10-27T08:29:26.314Z,14.90
2022-10-27T08:31:58.680Z,14.90
2022-10-27T08:35:46.343Z,14.90
2022-10-27T08:39:00.525Z,15.00
2022-10-27T08:41:40.981Z,15.10
2022-10-27T08:44:20.835Z,15.10
2022-10-27T08:46:51.793Z,15.20
2022-10-27T08:49:34.505Z,15.30
2022-10-27T08:52:37.327Z,15.40
2022-10-27T08:55:26.797Z,15.50
2022-10-27T08:59:06.008Z,15.60
2022-10-27T09:02:23.123Z,15.60
2022-10-27T09:05:22.350Z,15.70
2022-10-27T09:08:07.275Z,15.70
2022-10-27T09:14:50.913Z,15.90
2022-10-27T09:20:21.590Z,16.00
2022-10-27T09:22:51.363Z,16.10
2022-10-27T09:25:23.616Z,16.20
2022-10-27T09:27:55.986Z,16.30
2022-10-27T09:30:47.074Z,16.30
2022-10-27T09:33:45.818Z,16.30
2022-10-27T09:36:26.291Z,16.40
2022-10-27T09:38:55.917Z,16.50
2022-10-27T09:41:32.699Z,16.50
2022-10-27T09:44:00.765Z,16.50
2022-10-27T09:46:39.322Z,16.60
2022-10-27T09:49:10.891Z,16.50
2022-10-27T09:51:44.541Z,16.60
2022-10-27T09:54:31.481Z,16.70
2022-10-27T09:57:16.087Z,16.70
2022-10-27T09:59:46.493Z,16.80
2022-10-27T10:02:28.309Z,16.80
2022-10-27T10:05:15.707Z,16.80
2022-10-27T10:07:46.962Z,16.90
2022-10-27T10:10:25.624Z,16.90
2022-10-27T10:13:14.083Z,17.00
2022-10-27T10:15:44.138Z,17.00
2022-10-27T10:18:25.845Z,17.10
2022-10-27T10:21:00.271Z,17.20
2022-10-27T10:23:30.313Z,17.20
2022-10-27T10:26:00.580Z,17.20
2022-10-27T10:28:45.822Z,17.30
2022-10-27T10:31:17.368Z,17.30
2022-10-27T10:33:47.907Z,17.30
2022-10-27T10:36:30.818Z,17.30
2022-10-27T10:39:00.150Z,17.30
2022-10-27T10:41:31.515Z,17.40
2022-10-27T10:44:12.350Z,17.40
2022-10-27T10:46:44.876Z,17.40
2022-10-27T10:49:22.012Z,17.40
2022-10-27T10:51:55.536Z,17.50
2022-10-27T10:54:32.532Z,17.50
2022-10-27T10:59:36.827Z,17.50
2022-10-27T11:02:17.698Z,17.50
2022-10-27T11:04:49.459Z,17.50
2022-10-27T11:07:23.851Z,17.50
2022-10-27T11:09:59.184Z,17.50
2022-10-27T11:12:32.806Z,17.50
2022-10-27T11:15:06.795Z,17.50
2022-10-27T11:17:40.042Z,17.50
2022-10-27T11:20:14.750Z,17.50
2022-10-27T11:25:27.942Z,17.50
2022-10-27T11:28:04.745Z,17.50
2022-10-27T11:30:36.201Z,17.50
2022-10-27T11:33:15.470Z,17.60
2022-10-27T11:35:52.409Z,17.60
2022-10-27T11:38:32.299Z,17.70
2022-10-27T11:41:32.016Z,17.80
2022-10-27T11:44:10.024Z,17.90
2022-10-27T11:46:44.317Z,18.00
2022-10-27T11:49:25.089Z,18.00
2022-10-27T11:52:07.875Z,18.00
2022-10-27T11:54:39.348Z,18.00
2022-10-27T11:57:42.315Z,18.00
2022-10-27T12:00:21.057Z,18.10
2022-10-27T12:03:15.718Z,18.10
2022-10-27T12:06:01.585Z,18.20
2022-10-27T12:08:58.300Z,18.20
2022-10-27T12:11:42.790Z,18.20
2022-10-27T12:14:19.464Z,18.20
2022-10-27T12:17:38.012Z,18.20
2022-10-27T12:20:17.188Z,18.20
2022-10-27T12:22:54.439Z,18.20
2022-10-27T12:25:31.827Z,18.20
2022-10-27T12:28:06.250Z,18.20
2022-10-27T12:30:34.117Z,18.20
2022-10-27T12:33:09.149Z,18.10
2022-10-27T12:36:06.014Z,18.10
2022-10-27T12:38:41.890Z,18.10
2022-10-27T12:41:17.420Z,18.00
2022-10-27T12:43:58.406Z,18.00
2022-10-27T12:46:43.055Z,17.90
2022-10-27T12:49:20.966Z,17.90
2022-10-27T12:51:55.900Z,17.90
2022-10-27T12:54:47.949Z,17.90
2022-10-27T12:57:30.782Z,17.90
2022-10-27T13:00:06.685Z,17.90
2022-10-27T13:02:42.688Z,18.00
2022-10-27T13:05:51.592Z,18.00
2022-10-27T13:09:08.951Z,18.00
2022-10-27T13:12:12.905Z,18.00
2022-10-27T13:15:27.431Z,18.10
2022-10-27T13:18:07.641Z,18.20
2022-10-27T13:21:09.699Z,18.20
2022-10-27T13:23:56.008Z,18.20
2022-10-27T13:26:29.873Z,18.30
2022-10-27T13:29:01.608Z,18.40
2022-10-27T13:31:30.821Z,18.40
2022-10-27T13:34:20.713Z,18.40
2022-10-27T13:36:58.473Z,18.50
2022-10-27T13:39:49.407Z,18.40
2022-10-27T13:42:18.838Z,18.40
2022-10-27T13:44:48.706Z,18.40
2022-10-27T13:47:19.899Z,18.40
2022-10-27T13:50:07.870Z,18.40
2022-10-27T13:52:37.036Z,18.40
2022-10-27T13:55:33.979Z,18.40
2022-10-27T13:58:24.294Z,18.40
2022-10-27T14:01:18.998Z,18.50
2022-10-27T14:07:29.080Z,18.50
2022-10-27T14:09:56.981Z,18.50
2022-10-27T14:12:32.607Z,18.50
2022-10-27T14:15:07.774Z,18.60
2022-10-27T14:17:39.778Z,18.60
2022-10-27T14:20:20.677Z,18.70
2022-10-27T14:22:52.867Z,18.80
2022-10-27T14:25:28.348Z,18.90
2022-10-27T14:28:14.722Z,18.90
2022-10-27T14:30:50.686Z,19.00
2022-10-27T14:33:27.219Z,19.00
2022-10-27T14:38:52.009Z,18.90
2022-10-27T14:41:24.547Z,18.90
2022-10-27T14:43:57.382Z,18.90
2022-10-27T14:46:30.606Z,18.90
2022-10-27T14:49:11.153Z,18.90
2022-10-27T14:51:43.802Z,18.90
2022-10-27T14:54:18.645Z,18.90
2022-10-27T14:56:50.262Z,18.90
2022-10-27T14:59:25.018Z,18.90
2022-10-27T15:01:57.094Z,18.90
2022-10-27T15:04:27.997Z,18.90
2022-10-27T15:07:02.447Z,18.90
2022-10-27T15:09:33.412Z,18.80
2022-10-27T15:12:04.852Z,18.80
2022-10-27T15:14:34.680Z,18.70
2022-10-27T15:17:02.809Z,18.70
2022-10-27T15:19:30.873Z,18.70
2022-10-27T15:22:01.306Z,18.70
2022-10-27T15:24:29.363Z,18.70
2022-10-27T15:26:57.838Z,18.60
2022-10-27T15:29:25.774Z,18.60
2022-10-27T15:31:59.239Z,18.60
2022-10-27T15:34:36.087Z,18.60
2022-10-27T15:37:30.618Z,18.60
2022-10-27T15:40:19.341Z,18.50
2022-10-27T15:42:48.204Z,18.50
2022-10-27T15:45:41.497Z,18.50
2022-10-27T15:48:32.929Z,18.50
2022-10-27T15:51:03.146Z,18.40
2022-10-27T15:53:37.272Z,18.40
2022-10-27T15:56:07.236Z,18.40
2022-10-27T15:58:37.339Z,18.40
2022-10-27T16:01:10.972Z,18.40
2022-10-27T16:03:42.779Z,18.40
2022-10-27T16:06:21.453Z,18.30
2022-10-27T16:08:51.670Z,18.30
2022-10-27T16:11:21.461Z,18.30
2022-10-27T16:13:52.031Z,18.20
2022-10-27T16:16:20.284Z,18.20
2022-10-27T16:18:48.334Z,18.20
2022-10-27T16:21:25.952Z,18.10
2022-10-27T16:23:57.074Z,18.10
2022-10-27T16:26:27.830Z,18.10
2022-10-27T16:29:01.057Z,18.00
2022-10-27T16:31:30.488Z,18.00
2022-10-27T16:33:58.771Z,18.00
2022-10-27T16:36:26.606Z,18.00
2022-10-27T16:38:55.735Z,17.90
2022-10-27T16:41:27.845Z,17.90
2022-10-27T16:43:55.990Z,17.90
2022-10-27T16:46:24.399Z,17.90
2022-10-27T16:48:52.230Z,17.90
2022-10-27T16:51:20.439Z,17.80
2022-10-27T16:53:49.564Z,17.80
2022-10-27T16:56:18.842Z,17.80
2022-10-27T16:58:46.635Z,17.80
2022-10-27T17:01:16.380Z,17.80
2022-10-27T17:03:44.669Z,17.70
2022-10-27T17:06:13.437Z,17.70
2022-10-27T17:08:41.916Z,17.70
2022-10-27T17:11:10.973Z,17.70
2022-10-27T17:13:40.509Z,17.70
2022-10-27T17:16:10.561Z,17.60
2022-10-27T17:18:38.836Z,17.60
2022-10-27T17:21:07.823Z,17.60
2022-10-27T17:23:35.787Z,17.60
2022-10-27T17:26:05.112Z,17.60
2022-10-27T17:28:33.393Z,17.60
2022-10-27T17:31:08.310Z,17.60
2022-10-27T17:33:37.140Z,17.60
2022-10-27T17:36:06.909Z,17.50
2022-10-27T17:38:34.954Z,17.50
2022-10-27T17:41:04.456Z,17.50
2022-10-27T17:43:36.135Z,17.50
2022-10-27T17:46:08.820Z,17.40
2022-10-27T17:48:37.945Z,17.40
2022-10-27T17:51:07.373Z,17.40
2022-10-27T17:53:35.763Z,17.40
2022-10-27T17:56:06.134Z,17.40
2022-10-27T17:58:36.287Z,17.40
2022-10-27T18:01:14.930Z,17.30
2022-10-27T18:03:50.517Z,17.30
2022-10-27T18:06:25.899Z,17.30
2022-10-27T18:08:56.291Z,17.30
2022-10-27T18:11:37.113Z,17.30
2022-10-27T18:14:08.041Z,17.30
2022-10-27T18:16:40.797Z,17.30
2022-10-27T18:19:10.288Z,17.30
2022-10-27T18:21:39.987Z,17.30
2022-10-27T18:24:14.241Z,17.30
2022-10-27T18:26:54.477Z,17.20
2022-10-27T18:29:25.580Z,17.20
2022-10-27T18:31:55.982Z,17.20
2022-10-27T18:34:33.876Z,17.20
2022-10-27T18:37:04.821Z,17.20
2022-10-27T18:39:33.076Z,17.10
2022-10-27T18:42:00.904Z,17.20
2022-10-27T18:44:31.627Z,17.10
2022-10-27T18:47:45.466Z,17.10
2022-10-27T18:50:15.206Z,17.10
2022-10-27T18:52:43.008Z,17.10
2022-10-27T18:55:11.259Z,17.10
2022-10-27T18:57:57.299Z,17.10
2022-10-27T19:00:39.063Z,17.00
2022-10-27T19:06:32.053Z,17.00
2022-10-27T19:11:37.703Z,17.00
2022-10-27T19:14:23.074Z,16.90
2022-10-27T19:16:54.835Z,16.90
2022-10-27T19:19:26.615Z,16.90
2022-10-27T19:21:55.228Z,16.80
2022-10-27T19:24:23.430Z,16.80
2022-10-27T19:26:52.900Z,16.80
2022-10-27T19:29:20.826Z,16.80
2022-10-27T19:31:48.673Z,16.80
2022-10-27T19:34:16.550Z,16.70
2022-10-27T19:36:44.588Z,16.70
2022-10-27T19:39:13.151Z,16.70
2022-10-27T19:41:41.183Z,16.60
2022-10-27T19:44:11.920Z,16.60
2022-10-27T19:46:40.147Z,16.60
2022-10-27T19:49:13.635Z,16.60
2022-10-27T19:51:42.081Z,16.60
2022-10-27T19:54:15.442Z,16.60
2022-10-27T19:56:47.351Z,16.60
2022-10-27T19:59:17.126Z,16.60
2022-10-27T20:01:48.738Z,16.60
2022-10-27T20:04:19.429Z,16.60
2022-10-27T20:06:47.354Z,16.60
2022-10-27T20:09:15.578Z,16.60
2022-10-27T20:11:44.559Z,16.50
2022-10-27T20:14:12.649Z,16.60
2022-10-27T20:16:43.706Z,16.50
2022-10-27T20:19:14.124Z,16.60
2022-10-27T20:21:42.384Z,16.60
2022-10-27T20:24:11.793Z,16.60
2022-10-27T20:26:40.628Z,16.60
2022-10-27T20:29:08.749Z,16.60
2022-10-27T20:31:37.123Z,16.60
2022-10-27T20:34:10.171Z,16.60
2022-10-27T20:36:39.322Z,16.60
2022-10-27T20:39:08.986Z,16.60
2022-10-27T20:41:37.009Z,16.60
2022-10-27T20:44:05.219Z,16.60
2022-10-27T20:46:34.497Z,16.60
2022-10-27T20:49:02.746Z,16.60
2022-10-27T20:51:33.283Z,16.70
2022-10-27T20:54:03.936Z,16.70
2022-10-27T20:56:34.577Z,16.70
2022-10-27T20:59:03.311Z,16.70
2022-10-27T21:01:32.859Z,16.70
2022-10-27T21:04:02.713Z,16.70
2022-10-27T21:06:43.255Z,16.70
2022-10-27T21:09:12.949Z,16.70
2022-10-27T21:11:44.035Z,16.70
2022-10-27T21:14:13.638Z,16.70
2022-10-27T21:16:51.324Z,16.70
2022-10-27T21:19:19.711Z,16.70
2022-10-27T21:21:57.170Z,16.70
2022-10-27T21:24:25.986Z,16.70
2022-10-27T21:26:53.841Z,16.70
2022-10-27T21:29:21.893Z,16.70
2022-10-27T21:31:55.250Z,16.70
2022-10-27T21:34:26.442Z,16.70
2022-10-27T21:37:21.105Z,16.70
2022-10-27T21:40:04.506Z,16.70
2022-10-27T21:42:47.038Z,16.70
2022-10-27T21:45:15.377Z,16.70
2022-10-27T21:47:43.643Z,16.80
2022-10-27T21:50:11.850Z,16.80
2022-10-27T21:52:41.208Z,16.80
2022-10-27T21:55:09.676Z,16.80
2022-10-27T21:57:43.076Z,16.80
2022-10-27T22:00:13.395Z,16.80
2022-10-27T22:02:41.471Z,16.80
2022-10-27T22:05:10.427Z,16.80
2022-10-27T22:07:38.322Z,16.70
2022-10-27T22:10:09.289Z,16.70
2022-10-27T22:12:37.139Z,16.70
2022-10-27T22:15:06.051Z,16.70
2022-10-27T22:17:36.047Z,16.70
2022-10-27T22:20:07.813Z,16.70
2022-10-27T22:22:46.849Z,16.70
2022-10-27T22:25:16.345Z,16.70
2022-10-27T22:28:04.983Z,16.70
2022-10-27T22:30:32.866Z,16.70
2022-10-27T22:33:02.629Z,16.70
2022-10-27T22:35:30.774Z,16.70
2022-10-27T22:37:58.947Z,16.70
2022-10-27T22:40:36.460Z,16.70
2022-10-27T22:43:04.337Z,16.70
2022-10-27T22:45:32.211Z,16.70
2022-10-27T22:48:00.040Z,16.70
2022-10-27T22:50:27.863Z,16.70
2022-10-27T22:52:55.717Z,16.70
2022-10-27T22:55:23.566Z,16.70
2022-10-27T22:57:53.013Z,16.70
2022-10-27T23:00:22.469Z,16.60
2022-10-27T23:02:52.288Z,16.60
2022-10-27T23:05:20.436Z,16.70
2022-10-27T23:07:48.306Z,16.70
2022-10-27T23:10:16.326Z,16.70
2022-10-27T23:12:44.196Z,16.70
2022-10-27T23:15:13.609Z,16.70
2022-10-27T23:17:41.443Z,16.70
2022-10-27T23:20:10.751Z,16.70
2022-10-27T23:22:38.600Z,16.70
2022-10-27T23:25:07.224Z,16.70
2022-10-27T23:27:35.326Z,16.70
2022-10-27T23:30:03.183Z,16.60
2022-10-27T23:32:39.990Z,16.60
2022-10-27T23:35:09.265Z,16.60
2022-10-27T23:37:41.301Z,16.60
2022-10-27T23:40:10.171Z,16.60
2022-10-27T23:42:38.035Z,16.50
2022-10-27T23:45:06.685Z,16.50
2022-10-27T23:47:36.054Z,16.50
2022-10-27T23:50:03.980Z,16.50
2022-10-27T23:52:31.917Z,16.50
2022-10-27T23:55:15.301Z,16.50
2022-10-27T23:57:43.144Z,16.50
